aviador You're here:

EPRZ Decoded Metar

RZESZOW in POLAND
Report Time2018-02-20 13:30:00
UTC Time2018-02-20 13:55:02
Flight Rules vfr VFR
Wind090° at 14 kt
W.Decomp.*RWY 09: 13.9 kt HW 1.2 kt LCW
W.Rank090° ranks 5
Current wind is above 090° avg. (6.9)
Visibility9999 m
Phenomena:N/A
Clouds:N/A
Expected CloudBase > 2,000 ft AGL from Temp-Dew spread
CeilingNone
Temp-2°C (ISA -16)
Dew Point-7°C (69% RH)
AAT-9.8°C
QNH1018 hPa
Density Alt-1,378 ft
Elevation663 ft
Report Wrong Elevation
Raw Report
EPRZ 201330Z 09014KT CAVOK M02/M07 Q1018=

Extra information for EPRZ:More info

Metar Taf Metar & Taf Last 4 Metars F.Rules Stats Wind Profile Meteogram Temp Stats Airport Information Weather charts Add Link Nearby VenuesMetar ALERT Operation Metar Decoded Social comments